Time;durP1;ratioP1;P1;durP2;ratioP2;P2;SDS_P1;SDS_P2;PMS_P1;PMS_P2;Temp;Humidity;BMP_temperature;BMP_pressure;BME280_temperature;BME280_humidity;BME280_pressure;Samples;Min_cycle;Max_cycle;Signal;HPM_P1;HPM_P2
2023/04/16 00:00:35;;;;;;;103.90;37.83;;;;;;;;;;5030178;28;20021;-73
2023/04/16 00:03:00;;;;;;;84.70;33.35;;;;;;;;;;5029296;28;20016;-73
2023/04/16 00:05:26;;;;;;;101.10;37.13;;;;;;;;;;5030053;28;20033;-73
2023/04/16 00:07:51;;;;;;;95.53;35.90;;;;;;;;;;5032665;28;20080;-73
2023/04/16 00:10:17;;;;;;;83.30;36.28;;;;;;;;;;5034017;28;20485;-73
2023/04/16 00:12:42;;;;;;;99.43;38.42;;;;;;;;;;5028945;28;20119;-73
2023/04/16 00:15:07;;;;;;;85.22;33.10;;;;;;;;;;5031731;28;20029;-73
2023/04/16 00:17:32;;;;;;;84.03;33.33;;;;;;;;;;5029683;28;20044;-73
2023/04/16 00:19:57;;;;;;;86.37;33.53;;;;;;;;;;5029669;28;20028;-73
2023/04/16 00:22:23;;;;;;;92.10;35.03;;;;;;;;;;5029719;28;20276;-73
2023/04/16 00:24:48;;;;;;;89.75;32.85;;;;;;;;;;5030227;28;20252;-73
2023/04/16 00:27:13;;;;;;;99.97;35.38;;;;;;;;;;5029762;28;20021;-73
2023/04/16 00:29:38;;;;;;;91.57;36.80;;;;;;;;;;5030387;28;20057;-73
2023/04/16 00:32:04;;;;;;;97.03;35.27;;;;;;;;;;5030037;28;20252;-73
2023/04/16 00:34:29;;;;;;;96.20;35.38;;;;;;;;;;5028598;28;20268;-73
2023/04/16 00:36:55;;;;;;;95.28;35.53;;;;;;;;;;5028545;28;20502;-73
2023/04/16 00:39:20;;;;;;;102.93;35.77;;;;;;;;;;5028443;28;20028;-73
2023/04/16 00:41:45;;;;;;;89.50;35.53;;;;;;;;;;5030092;28;20256;-73
2023/04/16 00:44:10;;;;;;;102.63;37.08;;;;;;;;;;5029326;28;20021;-73
2023/04/16 00:46:36;;;;;;;107.77;36.13;;;;;;;;;;5033513;28;20367;-73
2023/04/16 00:49:01;;;;;;;93.25;34.47;;;;;;;;;;5035503;28;20303;-72
2023/04/16 00:51:27;;;;;;;106.65;35.08;;;;;;;;;;5033726;28;20056;-73
2023/04/16 00:53:52;;;;;;;96.78;35.50;;;;;;;;;;5034335;28;20041;-73
2023/04/16 00:56:17;;;;;;;98.63;37.30;;;;;;;;;;5035878;28;20437;-73
2023/04/16 00:58:43;;;;;;;95.47;36.58;;;;;;;;;;5033479;28;20021;-72
2023/04/16 01:01:08;;;;;;;98.30;36.83;;;;;;;;;;5031635;28;20020;-72
2023/04/16 01:03:43;;;;;;;99.50;36.93;;;;;;;;;;5034232;28;20745;-73
2023/04/16 01:06:09;;;;;;;95.85;37.88;;;;;;;;;;5028626;28;20279;-73
2023/04/16 01:08:35;;;;;;;101.03;39.30;;;;;;;;;;5029893;28;20017;-72
2023/04/16 01:11:00;;;;;;;108.60;37.95;;;;;;;;;;5028546;28;20014;-73
2023/04/16 01:13:25;;;;;;;114.70;38.63;;;;;;;;;;5033230;28;20036;-73
2023/04/16 01:15:51;;;;;;;106.63;40.15;;;;;;;;;;5033202;28;20040;-73
2023/04/16 01:18:16;;;;;;;101.75;36.33;;;;;;;;;;5032664;28;20029;-73
2023/04/16 01:20:42;;;;;;;103.65;37.45;;;;;;;;;;5031705;28;20032;-73
2023/04/16 01:23:07;;;;;;;105.85;38.50;;;;;;;;;;5036939;28;20057;-73
2023/04/16 01:25:32;;;;;;;99.78;35.42;;;;;;;;;;5034647;28;20021;-73
2023/04/16 01:27:58;;;;;;;111.60;38.25;;;;;;;;;;5032795;28;20374;-73
2023/04/16 01:30:23;;;;;;;105.40;38.35;;;;;;;;;;5038772;28;20476;-73
2023/04/16 01:32:48;;;;;;;103.82;37.63;;;;;;;;;;5031749;28;20017;-73
2023/04/16 01:35:13;;;;;;;104.57;38.87;;;;;;;;;;5033234;28;20084;-73
2023/04/16 01:37:38;;;;;;;104.00;35.22;;;;;;;;;;5033801;28;20279;-73
2023/04/16 01:40:04;;;;;;;110.57;35.23;;;;;;;;;;5032564;28;20025;-72
2023/04/16 01:42:29;;;;;;;97.20;33.83;;;;;;;;;;5033446;28;20768;-73
2023/04/16 01:44:54;;;;;;;94.65;36.47;;;;;;;;;;5032110;28;20501;-72
2023/04/16 01:47:20;;;;;;;91.80;34.72;;;;;;;;;;5031156;28;20493;-73
2023/04/16 01:49:47;;;;;;;92.88;33.95;;;;;;;;;;5031345;28;20025;-73
2023/04/16 01:52:12;;;;;;;101.60;36.20;;;;;;;;;;5033190;28;20059;-73
2023/04/16 01:54:37;;;;;;;84.15;33.13;;;;;;;;;;5031966;28;20462;-73
2023/04/16 01:57:02;;;;;;;91.63;35.05;;;;;;;;;;5030816;28;20090;-73
2023/04/16 01:59:27;;;;;;;87.30;35.17;;;;;;;;;;5032360;28;20513;-73
2023/04/16 02:01:53;;;;;;;104.38;33.92;;;;;;;;;;5031909;28;20159;-73
2023/04/16 02:04:18;;;;;;;107.13;35.97;;;;;;;;;;5032231;28;20088;-72
2023/04/16 02:06:43;;;;;;;103.33;37.53;;;;;;;;;;5027049;28;20026;-73
2023/04/16 02:09:08;;;;;;;98.03;34.45;;;;;;;;;;5028918;28;20285;-73
2023/04/16 02:11:34;;;;;;;104.95;36.08;;;;;;;;;;5031655;28;20025;-72
2023/04/16 02:13:59;;;;;;;109.65;38.53;;;;;;;;;;5032126;28;20025;-73
2023/04/16 02:16:25;;;;;;;103.30;36.15;;;;;;;;;;5030872;28;20025;-73
2023/04/16 02:18:50;;;;;;;101.22;36.90;;;;;;;;;;5031959;28;20029;-73
2023/04/16 02:21:15;;;;;;;99.25;35.83;;;;;;;;;;5031902;28;20052;-73
2023/04/16 02:23:41;;;;;;;110.15;39.13;;;;;;;;;;5031477;28;20021;-73
2023/04/16 02:26:06;;;;;;;110.85;38.60;;;;;;;;;;5032060;28;20031;-73
2023/04/16 02:28:31;;;;;;;120.70;38.40;;;;;;;;;;5031362;28;20475;-73
2023/04/16 02:30:56;;;;;;;114.37;39.63;;;;;;;;;;5032255;28;20341;-72
2023/04/16 02:33:24;;;;;;;112.40;37.70;;;;;;;;;;5029388;28;20281;-73
2023/04/16 02:35:50;;;;;;;109.60;38.85;;;;;;;;;;5035487;28;20276;-72
2023/04/16 02:38:15;;;;;;;114.50;40.28;;;;;;;;;;5032997;28;20023;-73
2023/04/16 02:40:40;;;;;;;120.28;39.85;;;;;;;;;;5031528;28;20371;-73
2023/04/16 02:43:05;;;;;;;108.57;37.60;;;;;;;;;;5033575;28;20390;-73
2023/04/16 02:45:30;;;;;;;96.73;35.30;;;;;;;;;;5032817;28;20101;-73
2023/04/16 02:47:55;;;;;;;94.03;33.60;;;;;;;;;;5030490;28;20284;-71
2023/04/16 02:50:21;;;;;;;94.35;32.20;;;;;;;;;;5030021;28;20371;-71
2023/04/16 02:52:46;;;;;;;92.22;30.83;;;;;;;;;;5027273;28;20433;-71
2023/04/16 02:55:11;;;;;;;82.97;32.00;;;;;;;;;;5031199;28;20092;-71
2023/04/16 02:57:36;;;;;;;91.30;30.42;;;;;;;;;;5027980;28;20032;-71
2023/04/16 03:00:03;;;;;;;97.38;31.80;;;;;;;;;;5030442;28;20025;-71
2023/04/16 03:02:29;;;;;;;97.15;33.67;;;;;;;;;;5033299;28;20406;-71
2023/04/16 03:04:54;;;;;;;94.17;30.40;;;;;;;;;;5032840;28;20017;-71
2023/04/16 03:07:19;;;;;;;100.45;33.25;;;;;;;;;;5033322;28;20279;-71
2023/04/16 03:09:44;;;;;;;110.03;36.57;;;;;;;;;;5033956;28;20029;-71
2023/04/16 03:12:10;;;;;;;103.03;33.42;;;;;;;;;;5029295;28;20648;-71
2023/04/16 03:14:35;;;;;;;105.80;37.03;;;;;;;;;;5027703;28;20573;-70
2023/04/16 03:17:00;;;;;;;101.43;35.33;;;;;;;;;;5028461;28;20112;-71
2023/04/16 03:19:25;;;;;;;113.07;33.90;;;;;;;;;;5032431;28;20079;-71
2023/04/16 03:21:51;;;;;;;104.50;34.65;;;;;;;;;;5028803;28;20307;-70
2023/04/16 03:24:16;;;;;;;112.97;38.97;;;;;;;;;;5027520;28;20017;-71
2023/04/16 03:26:41;;;;;;;114.75;36.90;;;;;;;;;;5027638;28;20368;-70
2023/04/16 03:29:06;;;;;;;98.67;36.63;;;;;;;;;;5029775;28;20030;-70
2023/04/16 03:31:31;;;;;;;108.63;35.33;;;;;;;;;;5030356;28;20272;-71
2023/04/16 03:33:57;;;;;;;110.20;37.80;;;;;;;;;;5027470;28;20291;-71
2023/04/16 03:36:22;;;;;;;101.10;35.83;;;;;;;;;;5029332;28;20315;-71
2023/04/16 03:38:47;;;;;;;104.03;35.85;;;;;;;;;;5027707;28;20303;-71
2023/04/16 03:41:12;;;;;;;115.20;38.92;;;;;;;;;;5028895;28;20064;-71
2023/04/16 03:43:38;;;;;;;115.13;36.37;;;;;;;;;;5028084;28;20021;-70
2023/04/16 03:46:03;;;;;;;118.47;42.20;;;;;;;;;;5028806;28;20562;-70
2023/04/16 03:48:28;;;;;;;131.57;38.65;;;;;;;;;;5028889;28;20056;-70
2023/04/16 03:50:53;;;;;;;128.27;37.40;;;;;;;;;;5027671;28;20056;-71
2023/04/16 03:53:18;;;;;;;103.23;35.50;;;;;;;;;;5028902;28;20342;-70
2023/04/16 03:55:44;;;;;;;121.20;38.07;;;;;;;;;;5028982;28;20273;-71
2023/04/16 03:58:09;;;;;;;111.10;35.33;;;;;;;;;;5024539;28;20359;-71
2023/04/16 04:00:35;;;;;;;119.33;35.47;;;;;;;;;;5027958;28;20128;-71
2023/04/16 04:03:00;;;;;;;120.45;37.80;;;;;;;;;;5030170;28;20267;-70
2023/04/16 04:05:25;;;;;;;121.50;39.55;;;;;;;;;;5028694;28;20025;-70
2023/04/16 04:07:50;;;;;;;114.70;36.47;;;;;;;;;;5028141;28;20033;-71
2023/04/16 04:10:15;;;;;;;113.35;35.35;;;;;;;;;;5030212;28;20260;-71
2023/04/16 04:12:40;;;;;;;109.95;35.47;;;;;;;;;;5029349;28;20029;-71
2023/04/16 04:15:06;;;;;;;106.43;34.53;;;;;;;;;;5033670;28;20118;-71
2023/04/16 04:17:31;;;;;;;120.95;35.92;;;;;;;;;;5030910;28;20029;-71
2023/04/16 04:19:56;;;;;;;96.07;33.87;;;;;;;;;;5029558;28;20013;-71
2023/04/16 04:22:21;;;;;;;111.10;36.05;;;;;;;;;;5027718;28;20435;-71
2023/04/16 04:24:47;;;;;;;112.15;37.22;;;;;;;;;;5030599;28;20043;-70
2023/04/16 04:27:12;;;;;;;98.13;34.73;;;;;;;;;;5029640;28;20013;-71
2023/04/16 04:29:37;;;;;;;112.00;35.50;;;;;;;;;;5031064;28;20268;-71
2023/04/16 04:32:02;;;;;;;119.75;37.85;;;;;;;;;;5030314;28;20116;-70
2023/04/16 04:34:27;;;;;;;123.15;37.22;;;;;;;;;;5029500;28;20036;-71
2023/04/16 04:36:53;;;;;;;106.43;34.30;;;;;;;;;;5027897;28;20107;-70
2023/04/16 04:39:20;;;;;;;101.90;35.60;;;;;;;;;;5029546;28;20524;-71
2023/04/16 04:41:45;;;;;;;118.18;36.53;;;;;;;;;;5030149;28;20045;-71
2023/04/16 04:44:10;;;;;;;117.60;34.08;;;;;;;;;;5028848;28;20429;-71
2023/04/16 04:46:35;;;;;;;111.33;36.40;;;;;;;;;;5031032;28;20032;-71
2023/04/16 04:49:01;;;;;;;108.87;34.33;;;;;;;;;;5029781;28;20632;-70
2023/04/16 04:51:26;;;;;;;95.90;32.87;;;;;;;;;;5028483;28;20267;-70
2023/04/16 04:53:51;;;;;;;105.85;33.58;;;;;;;;;;5026363;28;20787;-71
2023/04/16 04:56:16;;;;;;;111.90;32.53;;;;;;;;;;5024591;28;20028;-70
2023/04/16 04:58:42;;;;;;;109.65;34.45;;;;;;;;;;5026443;28;20870;-70
2023/04/16 05:01:07;;;;;;;97.80;32.78;;;;;;;;;;5026290;28;20160;-70
2023/04/16 05:03:32;;;;;;;110.70;34.33;;;;;;;;;;5026814;28;20032;-70
2023/04/16 05:05:57;;;;;;;112.97;33.28;;;;;;;;;;5028127;28;20264;-70
2023/04/16 05:08:22;;;;;;;101.15;31.98;;;;;;;;;;5026657;28;20017;-71
2023/04/16 05:10:48;;;;;;;114.72;34.13;;;;;;;;;;5030067;28;20538;-71
2023/04/16 05:13:13;;;;;;;107.88;34.70;;;;;;;;;;5025928;28;20017;-71
2023/04/16 05:15:38;;;;;;;94.00;33.23;;;;;;;;;;5028620;28;20467;-70
2023/04/16 05:18:04;;;;;;;112.53;32.97;;;;;;;;;;5027733;28;20298;-71
2023/04/16 05:20:29;;;;;;;92.03;31.35;;;;;;;;;;5029666;28;20024;-71
2023/04/16 05:22:55;;;;;;;98.93;31.35;;;;;;;;;;5030304;28;20053;-71
2023/04/16 05:25:20;;;;;;;97.13;33.40;;;;;;;;;;5027855;28;20045;-71
2023/04/16 05:27:45;;;;;;;82.88;31.30;;;;;;;;;;5027289;28;20496;-70
2023/04/16 05:30:10;;;;;;;97.80;30.58;;;;;;;;;;5024791;28;20059;-70
2023/04/16 05:32:38;;;;;;;103.50;32.00;;;;;;;;;;5034371;28;20386;-70
2023/04/16 05:35:03;;;;;;;98.05;32.35;;;;;;;;;;5033178;28;20057;-70
2023/04/16 05:37:28;;;;;;;102.80;31.83;;;;;;;;;;5032519;28;20052;-70
2023/04/16 05:39:53;;;;;;;105.88;34.90;;;;;;;;;;5032709;28;20061;-70
2023/04/16 05:42:18;;;;;;;97.63;32.03;;;;;;;;;;5034667;28;20104;-70
2023/04/16 05:44:44;;;;;;;112.20;34.03;;;;;;;;;;5034987;28;20017;-70
2023/04/16 05:47:09;;;;;;;103.83;34.23;;;;;;;;;;5031920;28;20272;-70
2023/04/16 05:49:36;;;;;;;106.45;34.85;;;;;;;;;;5031812;28;20307;-71
2023/04/16 05:52:01;;;;;;;98.78;34.28;;;;;;;;;;5030908;28;20044;-71
2023/04/16 05:54:26;;;;;;;107.85;35.75;;;;;;;;;;5028257;28;20402;-70
2023/04/16 05:56:51;;;;;;;103.70;33.03;;;;;;;;;;5030978;28;20091;-70
2023/04/16 05:59:17;;;;;;;100.37;32.07;;;;;;;;;;5029473;28;20303;-71
2023/04/16 06:01:42;;;;;;;97.80;33.50;;;;;;;;;;5031395;28;20317;-71
2023/04/16 06:04:07;;;;;;;97.68;33.67;;;;;;;;;;5029723;28;20289;-70
2023/04/16 06:06:32;;;;;;;97.10;32.57;;;;;;;;;;5027838;28;20024;-70
2023/04/16 06:08:57;;;;;;;113.20;34.22;;;;;;;;;;5030093;28;20349;-70
2023/04/16 06:11:22;;;;;;;92.60;31.73;;;;;;;;;;5034428;28;20479;-71
2023/04/16 06:13:48;;;;;;;96.57;32.50;;;;;;;;;;5029541;28;20275;-70
2023/04/16 06:16:13;;;;;;;85.07;30.00;;;;;;;;;;5029924;28;20320;-70
2023/04/16 06:18:38;;;;;;;92.03;31.17;;;;;;;;;;5028676;28;20515;-70
2023/04/16 06:21:03;;;;;;;86.37;28.90;;;;;;;;;;5028450;28;20296;-70
2023/04/16 06:23:28;;;;;;;86.95;27.67;;;;;;;;;;5031001;28;20268;-70
2023/04/16 06:25:54;;;;;;;84.93;29.77;;;;;;;;;;5028929;28;20024;-71
2023/04/16 06:28:19;;;;;;;76.60;28.35;;;;;;;;;;5030242;28;20295;-70
2023/04/16 06:30:45;;;;;;;87.10;30.33;;;;;;;;;;5030895;28;20022;-71
2023/04/16 06:33:10;;;;;;;84.25;29.63;;;;;;;;;;5033791;28;20114;-71
2023/04/16 06:35:35;;;;;;;73.28;26.92;;;;;;;;;;5034873;28;20029;-68
2023/04/16 06:38:01;;;;;;;89.10;31.67;;;;;;;;;;5030860;28;20041;-69
2023/04/16 06:40:26;;;;;;;87.40;31.87;;;;;;;;;;5036911;28;20287;-69
2023/04/16 06:42:51;;;;;;;84.10;29.30;;;;;;;;;;5030850;28;20263;-71
2023/04/16 06:45:16;;;;;;;81.13;27.13;;;;;;;;;;5031233;28;20129;-71
2023/04/16 06:47:41;;;;;;;85.95;27.90;;;;;;;;;;5032005;28;20267;-71
2023/04/16 06:50:07;;;;;;;85.35;28.35;;;;;;;;;;5029411;28;20029;-70
2023/04/16 06:52:32;;;;;;;67.47;25.77;;;;;;;;;;5032735;28;20225;-71
2023/04/16 06:54:57;;;;;;;70.45;26.85;;;;;;;;;;5030525;28;20108;-70
2023/04/16 06:57:22;;;;;;;61.80;25.67;;;;;;;;;;5034784;28;20029;-70
2023/04/16 06:59:47;;;;;;;69.73;24.37;;;;;;;;;;5028473;28;20331;-70
2023/04/16 07:02:12;;;;;;;56.23;23.20;;;;;;;;;;5034252;28;20269;-70
2023/04/16 07:04:38;;;;;;;63.77;22.67;;;;;;;;;;5028950;28;20262;-70
2023/04/16 07:07:03;;;;;;;57.08;21.83;;;;;;;;;;5028951;28;20863;-70
2023/04/16 07:09:28;;;;;;;53.03;22.25;;;;;;;;;;5029569;28;20049;-70
2023/04/16 07:11:53;;;;;;;63.13;24.40;;;;;;;;;;5027639;28;20052;-70
2023/04/16 07:14:19;;;;;;;58.05;23.45;;;;;;;;;;5029615;28;20033;-70
2023/04/16 07:16:44;;;;;;;64.00;22.83;;;;;;;;;;5029930;28;20025;-71
2023/04/16 07:19:10;;;;;;;57.85;23.23;;;;;;;;;;5029960;28;20025;-71
2023/04/16 07:21:35;;;;;;;59.13;23.80;;;;;;;;;;5026630;28;20025;-70
2023/04/16 07:24:00;;;;;;;59.47;23.85;;;;;;;;;;5034126;28;20502;-70
2023/04/16 07:26:25;;;;;;;62.47;22.70;;;;;;;;;;5035162;28;20032;-70
2023/04/16 07:28:50;;;;;;;59.73;21.70;;;;;;;;;;5034161;28;20025;-70
2023/04/16 07:31:16;;;;;;;49.28;20.40;;;;;;;;;;5031541;28;20760;-71
2023/04/16 07:33:41;;;;;;;52.63;20.95;;;;;;;;;;5029692;28;20498;-70
2023/04/16 07:36:06;;;;;;;47.55;20.38;;;;;;;;;;5031645;28;20021;-70
2023/04/16 07:38:31;;;;;;;56.30;19.30;;;;;;;;;;5030928;28;20375;-70
2023/04/16 07:40:56;;;;;;;54.55;21.35;;;;;;;;;;5033017;28;20044;-70
2023/04/16 07:43:22;;;;;;;53.95;21.67;;;;;;;;;;5037589;28;20075;-71
2023/04/16 07:45:47;;;;;;;54.70;19.95;;;;;;;;;;5028436;28;21483;-70
2023/04/16 07:48:12;;;;;;;49.10;21.15;;;;;;;;;;5032962;28;20029;-70
2023/04/16 07:50:37;;;;;;;57.67;21.70;;;;;;;;;;5031423;28;20036;-70
2023/04/16 07:53:02;;;;;;;58.53;20.33;;;;;;;;;;5033497;28;20466;-70
2023/04/16 07:55:28;;;;;;;56.65;20.45;;;;;;;;;;5029801;28;20054;-70
2023/04/16 07:57:53;;;;;;;52.60;21.90;;;;;;;;;;5035028;28;20095;-70
2023/04/16 08:00:18;;;;;;;59.50;23.63;;;;;;;;;;5033199;28;20295;-70
2023/04/16 08:02:43;;;;;;;55.07;22.27;;;;;;;;;;5029158;28;20009;-70
2023/04/16 08:05:09;;;;;;;55.65;21.85;;;;;;;;;;5023618;28;20272;-71
2023/04/16 08:07:35;;;;;;;50.15;21.25;;;;;;;;;;5030231;28;20029;-70
2023/04/16 08:10:00;;;;;;;60.83;25.23;;;;;;;;;;5027856;28;20028;-70
2023/04/16 08:12:25;;;;;;;55.67;21.30;;;;;;;;;;5028682;28;20433;-70
2023/04/16 08:14:50;;;;;;;50.88;21.80;;;;;;;;;;5027088;28;20232;-70
2023/04/16 08:17:15;;;;;;;51.92;22.30;;;;;;;;;;5026541;28;20095;-71
2023/04/16 08:19:44;;;;;;;56.03;21.10;;;;;;;;;;5026853;28;20167;-70
2023/04/16 08:22:10;;;;;;;48.85;21.05;;;;;;;;;;5028113;28;20101;-70
2023/04/16 08:24:35;;;;;;;52.92;20.90;;;;;;;;;;5020890;28;20491;-70
2023/04/16 08:27:00;;;;;;;49.50;21.30;;;;;;;;;;5031792;28;20128;-70
2023/04/16 08:29:26;;;;;;;51.80;19.95;;;;;;;;;;5027725;28;20280;-70
2023/04/16 08:31:52;;;;;;;51.50;20.35;;;;;;;;;;5026619;28;20022;-70
2023/04/16 08:34:17;;;;;;;59.58;21.00;;;;;;;;;;5022957;28;20026;-70
2023/04/16 08:36:42;;;;;;;51.72;21.00;;;;;;;;;;5029856;28;20099;-70
2023/04/16 08:39:07;;;;;;;48.75;22.13;;;;;;;;;;5026883;28;20107;-70
2023/04/16 08:41:33;;;;;;;51.83;21.83;;;;;;;;;;5029017;28;20014;-71
2023/04/16 08:44:06;;;;;;;47.42;21.38;;;;;;;;;;5026166;28;20652;-71
2023/04/16 08:46:34;;;;;;;41.60;19.75;;;;;;;;;;5023751;28;20017;-72
2023/04/16 08:48:59;;;;;;;51.42;21.60;;;;;;;;;;5026664;28;20018;-72
2023/04/16 08:51:27;;;;;;;48.03;20.50;;;;;;;;;;5025749;28;20032;-72
2023/04/16 08:53:56;;;;;;;46.25;20.25;;;;;;;;;;5024935;28;20343;-72
2023/04/16 08:56:22;;;;;;;48.33;21.55;;;;;;;;;;5024915;28;20033;-72
2023/04/16 08:58:48;;;;;;;42.85;20.60;;;;;;;;;;5026790;28;20035;-72
2023/04/16 09:01:16;;;;;;;48.85;21.42;;;;;;;;;;5023080;28;20057;-72
2023/04/16 09:03:41;;;;;;;53.05;20.42;;;;;;;;;;5026258;28;20029;-72
2023/04/16 09:06:06;;;;;;;51.15;22.50;;;;;;;;;;5029808;28;20027;-72
2023/04/16 09:08:32;;;;;;;47.85;21.10;;;;;;;;;;5029112;28;20025;-72
2023/04/16 09:10:58;;;;;;;43.30;21.63;;;;;;;;;;5030418;28;20096;-72
2023/04/16 09:13:24;;;;;;;42.03;19.48;;;;;;;;;;5030031;28;20029;-72
2023/04/16 09:15:52;;;;;;;40.00;18.80;;;;;;;;;;5029021;28;20021;-72
2023/04/16 09:18:19;;;;;;;42.78;20.02;;;;;;;;;;5033641;28;20044;-72
2023/04/16 09:20:44;;;;;;;46.53;19.88;;;;;;;;;;5033753;28;20032;-72
2023/04/16 09:23:10;;;;;;;44.83;21.08;;;;;;;;;;5029142;28;20025;-72
2023/04/16 09:25:36;;;;;;;48.50;21.50;;;;;;;;;;5028972;28;20550;-72
2023/04/16 09:28:01;;;;;;;39.38;19.58;;;;;;;;;;5030274;28;20017;-72
2023/04/16 09:30:26;;;;;;;43.85;20.10;;;;;;;;;;5034221;28;20029;-72
2023/04/16 09:33:10;;;;;;;47.08;19.70;;;;;;;;;;5029497;28;20633;-72
2023/04/16 09:35:43;;;;;;;40.78;21.52;;;;;;;;;;5029815;28;20014;-72
2023/04/16 09:38:09;;;;;;;49.45;21.77;;;;;;;;;;5028849;28;20026;-72
2023/04/16 09:40:34;;;;;;;42.47;19.80;;;;;;;;;;5032202;28;20071;-72
2023/04/16 09:43:08;;;;;;;48.40;20.90;;;;;;;;;;5029253;28;20038;-72
2023/04/16 09:45:46;;;;;;;41.72;20.88;;;;;;;;;;5030554;28;20275;-72
2023/04/16 09:48:11;;;;;;;50.30;21.45;;;;;;;;;;5031316;28;20025;-72
2023/04/16 09:50:36;;;;;;;44.07;21.40;;;;;;;;;;5028003;28;20029;-72
2023/04/16 09:53:02;;;;;;;39.03;19.33;;;;;;;;;;5026678;28;20716;-72
2023/04/16 09:55:27;;;;;;;40.80;20.23;;;;;;;;;;5029642;28;20272;-72
2023/04/16 09:57:59;;;;;;;36.85;19.48;;;;;;;;;;5029455;28;20052;-72
2023/04/16 10:00:25;;;;;;;39.95;19.38;;;;;;;;;;5030021;28;20028;-72
2023/04/16 10:03:01;;;;;;;45.13;20.80;;;;;;;;;;5031879;28;20025;-72
2023/04/16 10:05:26;;;;;;;43.85;21.10;;;;;;;;;;5030936;28;20506;-72
2023/04/16 10:07:52;;;;;;;44.70;19.43;;;;;;;;;;5025741;28;20025;-72
2023/04/16 10:10:17;;;;;;;37.78;19.30;;;;;;;;;;5028867;28;20326;-72
2023/04/16 10:12:42;;;;;;;34.90;18.85;;;;;;;;;;5030216;28;20025;-72
2023/04/16 10:15:08;;;;;;;45.40;20.10;;;;;;;;;;5031906;28;20406;-72
2023/04/16 10:17:33;;;;;;;39.60;19.23;;;;;;;;;;5029129;28;20159;-72
2023/04/16 10:20:00;;;;;;;37.08;17.85;;;;;;;;;;5025764;28;20091;-72
2023/04/16 10:22:25;;;;;;;41.17;19.30;;;;;;;;;;5028123;28;20433;-72
2023/04/16 10:24:51;;;;;;;35.95;17.65;;;;;;;;;;5028142;28;20034;-72
2023/04/16 10:27:17;;;;;;;40.42;18.55;;;;;;;;;;5030706;28;20053;-72
2023/04/16 10:29:42;;;;;;;37.88;19.23;;;;;;;;;;5029042;28;20014;-72
2023/04/16 10:32:08;;;;;;;32.60;18.45;;;;;;;;;;5026458;28;20505;-72
2023/04/16 10:34:33;;;;;;;32.95;17.40;;;;;;;;;;5024528;28;20032;-72
2023/04/16 10:36:59;;;;;;;36.15;18.48;;;;;;;;;;5034945;28;20061;-72
2023/04/16 10:39:26;;;;;;;36.75;17.67;;;;;;;;;;5033690;28;20025;-72
2023/04/16 10:42:05;;;;;;;44.53;19.17;;;;;;;;;;5027040;28;20029;-72
2023/04/16 10:44:31;;;;;;;34.15;17.45;;;;;;;;;;5027321;28;20016;-72
2023/04/16 10:46:56;;;;;;;40.53;21.05;;;;;;;;;;5028824;28;20228;-70
2023/04/16 10:49:21;;;;;;;45.93;22.97;;;;;;;;;;5027183;28;20018;-73
2023/04/16 10:51:54;;;;;;;49.03;22.02;;;;;;;;;;5033094;28;20278;-70
2023/04/16 10:54:21;;;;;;;38.42;21.20;;;;;;;;;;5035848;28;20119;-70
2023/04/16 10:56:46;;;;;;;37.85;20.02;;;;;;;;;;5030831;28;20022;-70
2023/04/16 10:59:12;;;;;;;39.38;19.67;;;;;;;;;;5034555;28;20018;-70
2023/04/16 11:01:41;;;;;;;31.90;17.80;;;;;;;;;;5029582;28;20382;-70
2023/04/16 11:04:18;;;;;;;36.53;17.15;;;;;;;;;;5035237;28;20025;-70
2023/04/16 11:07:02;;;;;;;30.33;16.30;;;;;;;;;;5030502;28;20018;-70
2023/04/16 11:09:43;;;;;;;36.40;18.73;;;;;;;;;;5030153;28;20579;-70
2023/04/16 11:12:10;;;;;;;32.85;18.15;;;;;;;;;;5030502;28;20068;-70
2023/04/16 11:14:35;;;;;;;39.05;19.02;;;;;;;;;;5032213;28;20032;-70
2023/04/16 11:17:02;;;;;;;34.63;20.23;;;;;;;;;;5030857;28;20021;-72
2023/04/16 11:19:27;;;;;;;33.13;19.45;;;;;;;;;;5028738;28;20483;-70
2023/04/16 11:21:53;;;;;;;39.10;18.80;;;;;;;;;;5030658;28;20029;-70
2023/04/16 11:24:18;;;;;;;37.63;18.55;;;;;;;;;;5030357;28;20033;-70
2023/04/16 11:26:43;;;;;;;32.27;17.70;;;;;;;;;;5029373;28;20064;-70
2023/04/16 11:29:15;;;;;;;34.93;18.10;;;;;;;;;;5032013;28;20272;-70
2023/04/16 11:31:40;;;;;;;35.00;17.70;;;;;;;;;;5029213;28;20264;-70
2023/04/16 11:34:07;;;;;;;30.27;17.30;;;;;;;;;;5029339;28;20033;-72
2023/04/16 11:36:48;;;;;;;26.50;15.52;;;;;;;;;;5029716;28;20624;-69
2023/04/16 11:39:13;;;;;;;27.65;15.48;;;;;;;;;;5034396;28;20127;-70
2023/04/16 11:41:46;;;;;;;28.33;15.43;;;;;;;;;;5030212;28;20021;-70
2023/04/16 11:44:25;;;;;;;28.48;16.17;;;;;;;;;;5028067;28;20048;-70
2023/04/16 11:46:51;;;;;;;27.50;14.52;;;;;;;;;;5022162;28;20017;-70
2023/04/16 11:49:16;;;;;;;27.95;14.50;;;;;;;;;;5024519;28;20040;-70
2023/04/16 11:51:45;;;;;;;24.15;13.38;;;;;;;;;;5034685;28;20037;-70
2023/04/16 11:54:20;;;;;;;27.17;13.10;;;;;;;;;;5034210;28;20033;-70
2023/04/16 11:56:46;;;;;;;29.58;15.48;;;;;;;;;;5031302;28;20017;-70
2023/04/16 11:59:21;;;;;;;30.88;16.63;;;;;;;;;;5029666;28;20421;-70
2023/04/16 12:01:56;;;;;;;28.52;15.68;;;;;;;;;;5020743;28;20025;-70
2023/04/16 12:04:24;;;;;;;33.20;17.08;;;;;;;;;;5028467;28;20017;-70
2023/04/16 12:07:08;;;;;;;31.33;16.80;;;;;;;;;;5027877;28;20505;-70
2023/04/16 12:09:34;;;;;;;32.78;17.08;;;;;;;;;;5026677;28;20041;-70
2023/04/16 12:12:00;;;;;;;26.52;14.57;;;;;;;;;;5024972;28;20028;-70
2023/04/16 12:14:25;;;;;;;24.67;14.30;;;;;;;;;;5028169;28;20017;-72
2023/04/16 12:16:50;;;;;;;25.10;14.80;;;;;;;;;;5029209;28;20029;-70
2023/04/16 12:19:17;;;;;;;25.25;14.68;;;;;;;;;;5030053;28;20263;-70
2023/04/16 12:21:45;;;;;;;26.10;14.85;;;;;;;;;;5028864;28;20030;-70
2023/04/16 12:24:12;;;;;;;24.10;14.65;;;;;;;;;;5027474;28;20036;-70
2023/04/16 12:26:45;;;;;;;25.40;14.75;;;;;;;;;;5026672;28;20030;-70
2023/04/16 12:29:17;;;;;;;28.92;13.80;;;;;;;;;;5024914;28;20093;-70
2023/04/16 12:31:43;;;;;;;21.80;12.57;;;;;;;;;;5027058;28;20562;-71
2023/04/16 12:34:09;;;;;;;24.88;13.30;;;;;;;;;;5027542;28;20116;-70
2023/04/16 12:36:34;;;;;;;20.60;11.80;;;;;;;;;;5027037;28;20086;-70
2023/04/16 12:38:59;;;;;;;19.05;11.30;;;;;;;;;;5030768;28;20030;-70
2023/04/16 12:41:25;;;;;;;23.73;12.45;;;;;;;;;;5035232;28;20470;-71
2023/04/16 12:43:50;;;;;;;23.33;11.90;;;;;;;;;;5033016;28;20025;-70
2023/04/16 12:46:15;;;;;;;19.33;11.03;;;;;;;;;;5032120;28;20261;-70
2023/04/16 12:48:41;;;;;;;21.00;11.50;;;;;;;;;;5033155;28;20279;-70
2023/04/16 12:51:06;;;;;;;22.38;12.20;;;;;;;;;;5033830;28;20521;-72
2023/04/16 12:53:31;;;;;;;22.80;12.43;;;;;;;;;;5036786;28;20025;-70
2023/04/16 12:55:57;;;;;;;22.03;11.77;;;;;;;;;;5030702;28;20288;-70
2023/04/16 12:58:22;;;;;;;20.90;12.45;;;;;;;;;;5032655;28;20275;-70
2023/04/16 13:00:47;;;;;;;24.42;12.00;;;;;;;;;;5032120;28;20032;-70
2023/04/16 13:03:12;;;;;;;20.08;11.18;;;;;;;;;;5033602;28;20092;-70
2023/04/16 13:05:37;;;;;;;17.80;10.98;;;;;;;;;;5030253;28;20017;-70
2023/04/16 13:08:03;;;;;;;18.53;10.73;;;;;;;;;;5036834;28;20542;-70
2023/04/16 13:10:28;;;;;;;21.45;11.88;;;;;;;;;;5027047;28;20268;-70
2023/04/16 13:12:53;;;;;;;20.33;11.27;;;;;;;;;;5037180;28;20036;-70
2023/04/16 13:15:18;;;;;;;24.30;12.73;;;;;;;;;;5030628;28;20276;-70
2023/04/16 13:17:43;;;;;;;20.93;12.00;;;;;;;;;;5030866;28;20280;-69
2023/04/16 13:20:09;;;;;;;20.37;11.47;;;;;;;;;;5030172;28;20030;-70
2023/04/16 13:22:34;;;;;;;19.58;11.55;;;;;;;;;;5030178;28;20649;-70
2023/04/16 13:24:59;;;;;;;21.40;11.43;;;;;;;;;;5032473;28;20029;-71
2023/04/16 13:27:25;;;;;;;25.63;14.07;;;;;;;;;;5028436;28;20304;-70
2023/04/16 13:29:50;;;;;;;24.40;13.50;;;;;;;;;;5025684;28;20028;-70
2023/04/16 13:32:16;;;;;;;24.20;14.45;;;;;;;;;;5025638;28;20096;-70
2023/04/16 13:34:41;;;;;;;25.67;14.77;;;;;;;;;;5027093;28;20380;-71
2023/04/16 13:37:06;;;;;;;26.38;14.65;;;;;;;;;;5029807;28;20017;-70
2023/04/16 13:39:32;;;;;;;30.13;14.93;;;;;;;;;;5029696;28;20022;-70
2023/04/16 13:41:57;;;;;;;22.73;13.45;;;;;;;;;;5029651;28;20041;-70
2023/04/16 13:44:22;;;;;;;28.03;13.90;;;;;;;;;;5029241;28;20017;-70
2023/04/16 13:46:47;;;;;;;25.33;13.60;;;;;;;;;;5030281;28;20784;-70
2023/04/16 13:49:13;;;;;;;23.80;12.00;;;;;;;;;;5039052;28;20418;-71
2023/04/16 13:51:38;;;;;;;26.17;12.50;;;;;;;;;;5030222;28;20280;-70
2023/04/16 13:54:03;;;;;;;22.48;11.90;;;;;;;;;;5025435;28;20022;-70
2023/04/16 13:56:29;;;;;;;16.17;11.35;;;;;;;;;;5030563;28;20059;-70
2023/04/16 13:58:54;;;;;;;22.67;12.50;;;;;;;;;;5028453;28;20398;-70
2023/04/16 14:01:19;;;;;;;23.33;11.65;;;;;;;;;;5028114;28;20027;-71
2023/04/16 14:03:45;;;;;;;21.70;13.02;;;;;;;;;;5025762;28;20021;-70
2023/04/16 14:06:10;;;;;;;25.40;13.77;;;;;;;;;;5031949;28;20115;-70